createdAt,value
2022-09-03T00:00:25.011Z,100490.91
2022-09-03T00:05:40.657Z,100483.31
2022-09-03T00:11:16.385Z,100484.19
2022-09-03T00:16:24.237Z,100478.16
2022-09-03T00:22:09.509Z,100464.69
2022-09-03T00:27:15.577Z,100465.81
2022-09-03T00:32:25.780Z,100462.25
2022-09-03T00:37:28.794Z,100462.38
2022-09-03T00:43:05.034Z,100466.50
2022-09-03T00:48:27.792Z,100468.09
2022-09-03T00:54:02.302Z,100469.19
2022-09-03T00:59:12.843Z,100462.34
2022-09-03T01:04:30.152Z,100469.28
2022-09-03T01:09:40.547Z,100468.28
2022-09-03T01:15:12.808Z,100469.16
2022-09-03T01:20:39.827Z,100466.53
2022-09-03T01:26:04.696Z,100469.59
2022-09-03T01:31:19.290Z,100467.50
2022-09-03T01:36:44.279Z,100465.25
2022-09-03T01:42:20.549Z,100462.06
2022-09-03T01:47:51.938Z,100458.41
2022-09-03T01:53:05.764Z,100456.41
2022-09-03T01:58:21.555Z,100457.00
2022-09-03T02:03:26.401Z,100435.44
2022-09-03T02:08:28.207Z,100456.59
2022-09-03T02:13:35.832Z,100465.00
2022-09-03T02:18:41.940Z,100460.81
2022-09-03T02:23:43.776Z,100464.31
2022-09-03T02:28:46.109Z,100464.31
2022-09-03T02:33:49.200Z,100463.00
2022-09-03T02:38:50.946Z,100467.63
2022-09-03T02:44:07.373Z,100454.31
2022-09-03T02:49:09.673Z,100468.00
2022-09-03T02:54:12.130Z,100461.38
2022-09-03T02:59:13.738Z,100468.88
2022-09-03T03:04:15.562Z,100472.44
2022-09-03T03:09:18.147Z,100469.59
2022-09-03T03:14:19.747Z,100461.97
2022-09-03T03:19:21.311Z,100472.81
2022-09-03T03:24:22.882Z,100473.94
2022-09-03T03:29:25.255Z,100466.88
2022-09-03T03:34:26.894Z,100472.69
2022-09-03T03:39:28.500Z,100463.13
2022-09-03T03:44:30.283Z,100470.16
2022-09-03T03:49:31.895Z,100463.53
2022-09-03T03:54:33.441Z,100470.31
2022-09-03T03:59:34.995Z,100471.78
2022-09-03T04:04:36.740Z,100469.22
2022-09-03T04:09:38.800Z,100474.63
2022-09-03T04:14:40.385Z,100469.22
2022-09-03T04:19:41.966Z,100472.94
2022-09-03T04:24:43.566Z,100468.38
2022-09-03T04:29:45.214Z,100472.69
2022-09-03T04:34:47.159Z,100479.56
2022-09-03T04:39:48.971Z,100483.00
2022-09-03T04:44:50.680Z,100493.34
2022-09-03T04:49:53.591Z,100489.19
2022-09-03T04:54:55.179Z,100487.69
2022-09-03T04:59:56.796Z,100477.59
2022-09-03T05:04:58.507Z,100488.03
2022-09-03T05:10:00.221Z,100496.03
2022-09-03T05:15:01.803Z,100511.16
2022-09-03T05:20:04.188Z,100512.72
2022-09-03T05:25:06.374Z,100511.00
2022-09-03T05:30:08.379Z,100514.38
2022-09-03T05:35:11.049Z,100505.81
2022-09-03T05:40:12.652Z,100517.47
2022-09-03T05:45:14.256Z,100501.56
2022-09-03T05:50:15.857Z,100506.47
2022-09-03T05:55:17.439Z,100508.13
2022-09-03T06:00:22.164Z,100515.72
2022-09-03T06:05:23.844Z,100501.69
2022-09-03T06:10:29.245Z,100502.94
2022-09-03T06:15:34.064Z,100502.34
2022-09-03T06:20:37.338Z,100500.66
2022-09-03T06:25:39.500Z,100503.72
2022-09-03T06:30:43.856Z,100506.91
2022-09-03T06:35:46.908Z,100520.75
2022-09-03T06:40:54.805Z,100524.50
2022-09-03T06:45:58.550Z,100524.78
2022-09-03T06:51:16.900Z,100529.84
2022-09-03T06:56:27.090Z,100520.94
2022-09-03T07:01:33.882Z,100519.78
2022-09-03T07:06:38.706Z,100518.72
2022-09-03T07:11:47.412Z,100523.09
2022-09-03T07:16:50.927Z,100525.88
2022-09-03T07:21:52.515Z,100513.97
2022-09-03T07:26:55.011Z,100522.13
2022-09-03T07:31:57.044Z,100518.56
2022-09-03T07:36:58.926Z,100518.09
2022-09-03T07:42:00.918Z,100529.41
2022-09-03T07:47:03.327Z,100524.59
2022-09-03T07:52:04.969Z,100519.09
2022-09-03T07:57:07.238Z,100531.28
2022-09-03T08:02:08.803Z,100525.47
2022-09-03T08:07:10.416Z,100527.22
2022-09-03T08:12:12.045Z,100519.50
2022-09-03T08:17:13.748Z,100522.50
2022-09-03T08:22:15.360Z,100531.41
2022-09-03T08:27:17.734Z,100521.94
2022-09-03T08:32:19.298Z,100515.72
2022-09-03T08:37:20.939Z,100505.53
2022-09-03T08:42:31.655Z,100503.84
2022-09-03T08:47:40.013Z,100514.50
2022-09-03T08:52:49.427Z,100505.94
2022-09-03T08:58:01.951Z,100497.72
2022-09-03T09:03:31.689Z,100496.00
2022-09-03T09:08:41.161Z,100501.44
2022-09-03T09:14:00.957Z,100506.41
2022-09-03T09:19:05.526Z,100493.84
2022-09-03T09:24:23.464Z,100476.34
2022-09-03T09:29:29.116Z,100484.16
2022-09-03T09:34:36.377Z,100476.19
2022-09-03T09:39:38.054Z,100481.38
2022-09-03T09:44:43.440Z,100476.94
2022-09-03T09:49:55.984Z,100472.41
2022-09-03T09:55:18.584Z,100471.28
2022-09-03T10:00:20.226Z,100463.44
2022-09-03T10:05:25.695Z,100471.72
2022-09-03T10:10:29.269Z,100473.72
2022-09-03T10:15:55.931Z,100441.97
2022-09-03T10:21:19.308Z,100447.41
2022-09-03T10:26:30.801Z,100449.84
2022-09-03T10:31:50.413Z,100456.06
2022-09-03T10:37:02.598Z,100445.66
2022-09-03T10:42:37.873Z,100450.69
2022-09-03T10:47:42.470Z,100443.00
2022-09-03T10:53:07.811Z,100432.16
2022-09-03T10:58:28.046Z,100429.72
2022-09-03T11:03:39.106Z,100418.72
2022-09-03T11:08:51.664Z,100406.13
2022-09-03T11:14:13.685Z,100405.84
2022-09-03T11:19:20.174Z,100408.78
2022-09-03T11:24:29.689Z,100406.03
2022-09-03T11:29:52.477Z,100407.28
2022-09-03T11:34:55.101Z,100392.59
2022-09-03T11:40:04.542Z,100380.69
2022-09-03T11:45:20.315Z,100373.00
2022-09-03T11:50:34.596Z,100377.69
2022-09-03T11:55:59.313Z,100381.25
2022-09-03T12:01:15.070Z,100390.72
2022-09-03T12:06:42.570Z,100389.31
2022-09-03T12:11:59.355Z,100382.28
2022-09-03T12:17:06.563Z,100375.91
2022-09-03T12:22:15.042Z,100381.78
2022-09-03T12:27:24.335Z,100374.19
2022-09-03T12:32:32.500Z,100371.28
2022-09-03T12:48:40.475Z,100363.28
2022-09-03T12:53:42.685Z,100370.63
2022-09-03T12:58:56.509Z,100366.47
2022-09-03T13:04:08.030Z,100362.44
2022-09-03T13:09:14.528Z,100353.09
2022-09-03T13:14:17.670Z,100351.47
2022-09-03T13:19:37.739Z,100354.72
2022-09-03T13:24:58.503Z,100359.75
2022-09-03T13:30:06.055Z,100365.50
2022-09-03T13:35:19.600Z,100357.56
2022-09-03T13:40:41.573Z,100363.22
2022-09-03T13:45:54.842Z,100361.63
2022-09-03T13:51:25.766Z,100361.84
2022-09-03T13:56:43.183Z,100351.09
2022-09-03T14:01:44.829Z,100349.72
2022-09-03T14:07:08.603Z,100357.28
2022-09-03T14:12:24.022Z,100352.97
2022-09-03T14:17:48.241Z,100348.53
2022-09-03T14:23:16.104Z,100350.97
2022-09-03T14:28:30.700Z,100359.66
2022-09-03T14:33:44.268Z,100356.28
2022-09-03T14:39:04.890Z,100347.03
2022-09-03T14:44:31.149Z,100349.94
2022-09-03T14:50:03.238Z,100352.63
2022-09-03T14:55:20.097Z,100344.63
2022-09-03T15:00:48.173Z,100345.28
2022-09-03T15:06:30.678Z,100340.03
2022-09-03T15:11:35.557Z,100342.75
2022-09-03T15:16:52.149Z,100342.75
2022-09-03T15:22:24.449Z,100344.63
2022-09-03T15:27:49.265Z,100343.53
2022-09-03T15:33:40.550Z,100339.94
2022-09-03T15:39:00.716Z,100351.53
2022-09-03T15:44:05.774Z,100349.03
2022-09-03T15:49:20.059Z,100349.50
2022-09-03T15:54:38.040Z,100347.81
2022-09-03T15:59:52.154Z,100354.03
2022-09-03T16:04:56.998Z,100356.81
2022-09-03T16:10:24.654Z,100361.00
2022-09-03T16:15:34.260Z,100354.84
2022-09-03T16:20:43.174Z,100352.59
2022-09-03T16:25:48.880Z,100342.22
2022-09-03T16:31:04.969Z,100350.84
2022-09-03T16:36:27.521Z,100349.31
2022-09-03T16:41:43.385Z,100352.59
2022-09-03T16:46:53.946Z,100348.50
2022-09-03T16:52:38.925Z,100349.72
2022-09-03T16:57:46.805Z,100351.91
2022-09-03T17:03:12.219Z,100346.28
2022-09-03T17:08:24.747Z,100351.94
2022-09-03T17:13:38.554Z,100347.66
2022-09-03T17:18:49.630Z,100357.06
2022-09-03T17:23:59.633Z,100355.00
2022-09-03T17:29:41.720Z,100350.53
2022-09-03T17:35:09.063Z,100354.47
2022-09-03T17:40:26.103Z,100356.31
2022-09-03T17:45:42.842Z,100359.34
2022-09-03T17:50:53.099Z,100360.34
2022-09-03T17:56:00.351Z,100361.69
2022-09-03T18:01:10.823Z,100355.66
2022-09-03T18:06:24.211Z,100360.44
2022-09-03T18:11:47.865Z,100361.41
2022-09-03T18:16:59.780Z,100361.22
2022-09-03T18:22:24.082Z,100360.47
2022-09-03T18:28:19.998Z,100383.28
2022-09-03T18:33:44.732Z,100390.56
2022-09-03T18:39:04.665Z,100403.00
2022-09-03T18:44:40.952Z,100405.63
2022-09-03T18:50:09.549Z,100399.09
2022-09-03T18:55:32.783Z,100410.09
2022-09-03T19:01:04.262Z,100415.84
2022-09-03T19:06:56.019Z,100415.31
2022-09-03T19:12:22.252Z,100418.69
2022-09-03T19:17:42.507Z,100417.44
2022-09-03T19:23:02.452Z,100408.34
2022-09-03T19:28:42.554Z,100414.44
2022-09-03T19:34:27.413Z,100423.84
2022-09-03T19:40:03.246Z,100423.28
2022-09-03T19:45:26.618Z,100428.66
2022-09-03T19:50:53.050Z,100429.41
2022-09-03T19:56:15.492Z,100422.16
2022-09-03T20:01:37.638Z,100422.16
2022-09-03T20:06:58.232Z,100432.81
2022-09-03T20:12:07.359Z,100426.84
2022-09-03T20:17:30.572Z,100435.75
2022-09-03T20:22:59.643Z,100434.38
2022-09-03T20:28:22.956Z,100437.09
2022-09-03T20:33:37.539Z,100426.06
2022-09-03T20:38:58.796Z,100441.31
2022-09-03T20:44:18.972Z,100443.31
2022-09-03T20:49:58.100Z,100449.34
2022-09-03T20:55:28.988Z,100439.06
2022-09-03T21:00:51.091Z,100455.69
2022-09-03T21:06:09.151Z,100455.31
2022-09-03T21:11:51.953Z,100453.00
2022-09-03T21:17:05.981Z,100456.88
2022-09-03T21:22:35.340Z,100466.34
2022-09-03T21:27:46.431Z,100464.09
2022-09-03T21:32:51.251Z,100460.94
2022-09-03T21:38:04.225Z,100467.41
2022-09-03T21:43:16.385Z,100467.53
2022-09-03T21:48:35.746Z,100468.84
2022-09-03T21:53:38.229Z,100470.41
2022-09-03T21:58:54.664Z,100472.53
2022-09-03T22:03:56.238Z,100477.88
2022-09-03T22:09:14.966Z,100489.16
2022-09-03T22:14:19.575Z,100485.28
2022-09-03T22:19:21.202Z,100485.28
2022-09-03T22:24:39.453Z,100486.72
2022-09-03T22:30:02.996Z,100478.72
2022-09-03T22:35:08.393Z,100473.84
2022-09-03T22:40:25.135Z,100466.97
2022-09-03T22:45:57.544Z,100479.84
2022-09-03T22:51:01.905Z,100470.13
2022-09-03T22:56:12.540Z,100465.81
2022-09-03T23:01:18.050Z,100468.94
2022-09-03T23:06:40.920Z,100459.81
2022-09-03T23:11:51.444Z,100464.38
2022-09-03T23:16:59.999Z,100458.34
2022-09-03T23:22:07.306Z,100443.91
2022-09-03T23:27:14.815Z,100464.63
2022-09-03T23:32:16.880Z,100471.81
2022-09-03T23:37:47.089Z,100460.50
2022-09-03T23:43:16.150Z,100469.94
2022-09-03T23:48:42.542Z,100470.78
2022-09-03T23:54:06.016Z,100465.34
2022-09-03T23:59:28.567Z,100472.31
